createdAt,value
2022-09-14T00:00:17.052Z,97.74
2022-09-14T00:03:24.838Z,97.79
2022-09-14T00:06:16.539Z,97.94
2022-09-14T00:09:08.597Z,98.01
2022-09-14T00:11:56.474Z,97.88
2022-09-14T00:14:44.435Z,98.05
2022-09-14T00:17:32.374Z,97.88
2022-09-14T00:20:21.911Z,97.94
2022-09-14T00:23:11.047Z,98.15
2022-09-14T00:26:08.265Z,98.28
2022-09-14T00:28:59.581Z,98.53
2022-09-14T00:31:48.015Z,98.09
2022-09-14T00:34:36.015Z,98.53
2022-09-14T00:37:23.956Z,98.28
2022-09-14T00:40:12.657Z,98.63
2022-09-14T00:43:00.292Z,98.50
2022-09-14T00:45:48.280Z,98.60
2022-09-14T00:48:36.120Z,98.43
2022-09-14T00:51:25.372Z,98.35
2022-09-14T00:54:13.040Z,98.23
2022-09-14T00:57:04.087Z,98.01
2022-09-14T00:59:54.385Z,97.67
2022-09-14T01:02:42.820Z,97.67
2022-09-14T01:06:19.239Z,97.53
2022-09-14T01:09:46.304Z,97.33
2022-09-14T01:13:18.285Z,96.91
2022-09-14T01:16:20.942Z,96.73
2022-09-14T01:19:23.745Z,96.44
2022-09-14T01:22:41.777Z,96.07
2022-09-14T01:25:57.340Z,95.68
2022-09-14T01:29:26.849Z,95.26
2022-09-14T01:32:29.990Z,95.10
2022-09-14T01:35:25.330Z,95.02
2022-09-14T01:38:31.847Z,94.80
2022-09-14T01:41:25.238Z,94.82
2022-09-14T01:44:22.667Z,94.86
2022-09-14T01:47:22.336Z,94.99
2022-09-14T01:50:17.310Z,95.10
2022-09-14T01:53:16.106Z,95.01
2022-09-14T01:56:20.295Z,95.32
2022-09-14T01:59:20.833Z,95.31
2022-09-14T02:02:26.278Z,95.44
2022-09-14T02:05:26.875Z,95.56
2022-09-14T02:08:15.027Z,95.60
2022-09-14T02:11:03.224Z,95.89
2022-09-14T02:13:50.864Z,96.14
2022-09-14T02:16:43.641Z,96.19
2022-09-14T02:19:38.044Z,96.17
2022-09-14T02:22:29.195Z,95.87
2022-09-14T02:25:21.034Z,95.54
2022-09-14T02:28:10.093Z,95.42
2022-09-14T02:31:53.089Z,95.38
2022-09-14T02:34:54.311Z,95.55
2022-09-14T02:38:21.709Z,95.31
2022-09-14T02:41:24.317Z,95.49
2022-09-14T02:44:31.075Z,95.58
2022-09-14T02:48:18.784Z,95.75
2022-09-14T02:51:21.684Z,95.81
2022-09-14T02:54:43.772Z,95.84
2022-09-14T02:57:31.991Z,95.83
2022-09-14T03:00:20.403Z,95.86
2022-09-14T03:03:11.847Z,95.83
2022-09-14T03:05:59.847Z,95.55
2022-09-14T03:08:48.372Z,95.37
2022-09-14T03:11:36.345Z,95.13
2022-09-14T03:14:24.095Z,95.32
2022-09-14T03:17:12.658Z,95.35
2022-09-14T03:20:15.690Z,95.98
2022-09-14T03:23:05.932Z,96.10
2022-09-14T03:25:53.445Z,96.00
2022-09-14T03:28:41.806Z,95.98
2022-09-14T03:31:29.849Z,95.97
2022-09-14T03:34:18.064Z,95.65
2022-09-14T03:37:06.745Z,95.50
2022-09-14T03:39:54.812Z,95.38
2022-09-14T03:42:48.866Z,95.19
2022-09-14T03:45:37.284Z,95.01
2022-09-14T03:48:25.109Z,94.81
2022-09-14T03:51:14.429Z,94.67
2022-09-14T03:54:02.537Z,94.88
2022-09-14T03:56:53.610Z,94.96
2022-09-14T03:59:43.691Z,94.94
2022-09-14T04:02:32.328Z,94.84
2022-09-14T04:05:21.944Z,94.98
2022-09-14T04:08:10.037Z,95.03
2022-09-14T04:10:58.003Z,95.42
2022-09-14T04:13:48.180Z,95.66
2022-09-14T04:16:36.194Z,96.12
2022-09-14T04:19:24.071Z,96.85
2022-09-14T04:22:12.239Z,97.41
2022-09-14T04:25:00.386Z,97.81
2022-09-14T04:27:55.133Z,98.41
2022-09-14T04:31:02.686Z,99.36
2022-09-14T04:33:51.606Z,99.92
2022-09-14T04:36:42.717Z,100.00
2022-09-14T04:39:30.448Z,100.00
2022-09-14T04:42:18.546Z,100.00
2022-09-14T04:45:07.372Z,100.00
2022-09-14T04:47:55.443Z,100.00
2022-09-14T04:50:43.910Z,100.00
2022-09-14T04:53:36.899Z,99.96
2022-09-14T04:56:25.582Z,99.79
2022-09-14T04:59:15.515Z,100.00
2022-09-14T05:02:03.745Z,100.00
2022-09-14T05:04:51.369Z,100.00
2022-09-14T05:07:41.318Z,100.00
2022-09-14T05:10:29.222Z,100.00
2022-09-14T05:13:17.249Z,100.00
2022-09-14T05:16:09.291Z,100.00
2022-09-14T05:19:05.355Z,100.00
2022-09-14T05:21:53.667Z,100.00
2022-09-14T05:24:42.165Z,100.00
2022-09-14T05:27:30.031Z,100.00
2022-09-14T05:30:18.147Z,100.00
2022-09-14T05:33:05.970Z,99.80
2022-09-14T05:36:01.682Z,99.59
2022-09-14T05:38:49.908Z,98.66
2022-09-14T05:41:38.483Z,98.11
2022-09-14T05:44:26.140Z,97.70
2022-09-14T05:47:16.671Z,96.80
2022-09-14T05:50:05.557Z,96.19
2022-09-14T05:52:53.472Z,95.52
2022-09-14T05:55:41.466Z,95.21
2022-09-14T05:58:32.175Z,95.18
2022-09-14T06:01:27.454Z,95.34
2022-09-14T06:04:15.526Z,95.33
2022-09-14T06:07:17.979Z,95.21
2022-09-14T06:10:07.433Z,94.49
2022-09-14T06:12:55.657Z,94.02
2022-09-14T06:15:43.482Z,93.77
2022-09-14T06:18:34.151Z,92.75
2022-09-14T06:21:22.436Z,92.39
2022-09-14T06:24:14.904Z,89.45
2022-09-14T06:27:02.810Z,87.24
2022-09-14T06:29:54.081Z,83.70
2022-09-14T06:32:43.102Z,80.57
2022-09-14T06:35:33.780Z,76.15
2022-09-14T06:38:21.871Z,74.43
2022-09-14T06:41:15.008Z,70.93
2022-09-14T06:44:03.746Z,67.79
2022-09-14T06:46:51.560Z,63.65
2022-09-14T06:49:39.582Z,62.58
2022-09-14T06:52:31.727Z,58.97
2022-09-14T06:55:21.201Z,56.14
2022-09-14T06:58:09.746Z,58.22
2022-09-14T07:01:03.504Z,60.26
2022-09-14T07:03:52.556Z,62.07
2022-09-14T07:06:47.547Z,63.11
2022-09-14T07:09:37.889Z,65.59
2022-09-14T07:12:25.671Z,68.03
2022-09-14T07:15:13.723Z,70.04
2022-09-14T07:18:01.865Z,71.64
2022-09-14T07:20:50.393Z,72.89
2022-09-14T07:23:41.422Z,73.58
2022-09-14T07:26:39.728Z,73.94
2022-09-14T07:29:27.983Z,74.48
2022-09-14T07:32:16.099Z,71.93
2022-09-14T07:35:05.389Z,64.93
2022-09-14T07:37:55.052Z,58.32
2022-09-14T07:40:44.038Z,52.37
2022-09-14T07:43:31.904Z,47.50
2022-09-14T07:46:21.521Z,44.69
2022-09-14T07:49:11.060Z,41.14
2022-09-14T07:51:58.653Z,39.18
2022-09-14T07:54:47.119Z,38.54
2022-09-14T07:57:55.200Z,38.24
2022-09-14T08:00:43.035Z,37.50
2022-09-14T08:03:31.791Z,37.50
2022-09-14T08:06:24.173Z,36.77
2022-09-14T08:09:11.782Z,35.81
2022-09-14T08:11:59.720Z,35.06
2022-09-14T08:14:47.693Z,33.97
2022-09-14T08:17:35.641Z,33.45
2022-09-14T08:20:23.526Z,32.74
2022-09-14T08:23:11.588Z,32.87
2022-09-14T08:26:17.287Z,32.43
2022-09-14T08:29:05.196Z,32.10
2022-09-14T08:31:53.393Z,33.25
2022-09-14T08:34:41.511Z,33.45
2022-09-14T08:37:29.511Z,34.37
2022-09-14T08:40:18.318Z,33.99
2022-09-14T08:43:06.444Z,35.08
2022-09-14T08:46:04.678Z,35.25
2022-09-14T08:48:53.739Z,36.20
2022-09-14T08:51:41.595Z,35.11
2022-09-14T08:54:31.101Z,34.51
2022-09-14T08:57:41.240Z,33.33
2022-09-14T09:00:52.532Z,31.85
2022-09-14T09:03:53.306Z,31.43
2022-09-14T09:07:04.031Z,31.23
2022-09-14T09:09:56.558Z,31.48
2022-09-14T09:12:56.025Z,31.19
2022-09-14T09:15:55.444Z,30.58
2022-09-14T09:18:53.763Z,30.30
2022-09-14T09:21:48.164Z,30.49
2022-09-14T09:24:53.861Z,30.24
2022-09-14T09:27:41.762Z,29.97
2022-09-14T09:30:30.439Z,31.15
2022-09-14T09:33:26.264Z,30.69
2022-09-14T09:36:39.482Z,32.78
2022-09-14T09:39:31.883Z,35.77
2022-09-14T09:42:26.323Z,38.75
2022-09-14T09:45:15.150Z,42.94
2022-09-14T09:48:10.801Z,46.42
2022-09-14T09:51:24.394Z,49.11
2022-09-14T09:54:15.695Z,50.24
2022-09-14T09:57:19.746Z,51.12
2022-09-14T10:00:22.708Z,50.59
2022-09-14T10:03:37.886Z,49.42
2022-09-14T10:06:29.187Z,46.22
2022-09-14T10:09:31.199Z,43.81
2022-09-14T10:12:19.782Z,45.24
2022-09-14T10:15:16.784Z,45.00
2022-09-14T10:18:12.175Z,43.67
2022-09-14T10:21:03.066Z,44.21
2022-09-14T10:24:21.868Z,43.70
2022-09-14T10:27:38.225Z,42.02
2022-09-14T10:30:45.625Z,40.43
2022-09-14T10:33:35.458Z,39.84
2022-09-14T10:36:47.961Z,39.74
2022-09-14T10:39:53.702Z,41.40
2022-09-14T10:43:09.275Z,42.21
2022-09-14T10:46:05.011Z,41.20
2022-09-14T10:49:16.838Z,41.75
2022-09-14T10:52:26.150Z,40.01
2022-09-14T10:55:42.437Z,39.52
2022-09-14T10:59:01.683Z,40.05
2022-09-14T11:02:04.906Z,38.45
2022-09-14T11:05:23.402Z,37.83
2022-09-14T11:08:32.603Z,37.49
2022-09-14T11:11:44.188Z,38.93
2022-09-14T11:15:11.180Z,41.12
2022-09-14T11:18:31.281Z,43.44
2022-09-14T11:21:43.118Z,45.68
2022-09-14T11:24:44.330Z,47.69
2022-09-14T11:28:07.462Z,49.18
2022-09-14T11:31:00.030Z,51.46
2022-09-14T11:34:21.929Z,52.75
2022-09-14T11:37:17.818Z,53.68
2022-09-14T11:40:16.287Z,54.53
2022-09-14T11:43:32.377Z,55.21
2022-09-14T11:46:33.206Z,56.17
2022-09-14T11:49:30.168Z,55.53
2022-09-14T11:52:22.017Z,55.25
2022-09-14T11:55:17.694Z,55.00
2022-09-14T11:58:08.319Z,54.00
2022-09-14T12:01:27.560Z,53.89
2022-09-14T12:04:18.981Z,53.05
2022-09-14T12:07:07.377Z,52.94
2022-09-14T12:10:19.569Z,52.54
2022-09-14T12:13:07.526Z,52.60
2022-09-14T12:16:09.484Z,53.11
2022-09-14T12:18:57.749Z,53.83
2022-09-14T12:21:45.513Z,53.96
2022-09-14T12:24:40.210Z,54.75
2022-09-14T12:27:32.465Z,55.24
2022-09-14T12:30:42.216Z,56.19
2022-09-14T12:33:35.639Z,57.00
2022-09-14T12:36:23.210Z,58.06
2022-09-14T12:39:26.503Z,58.54
2022-09-14T12:42:32.363Z,58.89
2022-09-14T12:45:52.432Z,60.62
2022-09-14T12:49:03.679Z,63.25
2022-09-14T12:51:52.305Z,63.71
2022-09-14T12:55:04.794Z,62.46
2022-09-14T12:58:16.352Z,59.87
2022-09-14T13:01:25.722Z,58.78
2022-09-14T13:04:23.816Z,57.87
2022-09-14T13:07:19.895Z,57.64
2022-09-14T13:10:08.950Z,58.03
2022-09-14T13:12:58.008Z,57.65
2022-09-14T13:15:59.737Z,57.28
2022-09-14T13:18:48.570Z,57.16
2022-09-14T13:21:46.538Z,56.94
2022-09-14T13:24:34.963Z,57.64
2022-09-14T13:27:35.823Z,57.19
2022-09-14T13:30:26.336Z,57.64
2022-09-14T13:33:18.192Z,58.45
2022-09-14T13:36:07.112Z,58.69
2022-09-14T13:39:01.406Z,58.68
2022-09-14T13:41:50.091Z,59.22
2022-09-14T13:44:46.987Z,59.53
2022-09-14T13:47:35.149Z,59.31
2022-09-14T13:50:25.568Z,59.58
2022-09-14T13:53:49.000Z,59.10
2022-09-14T13:56:36.951Z,58.14
2022-09-14T13:59:24.878Z,57.44
2022-09-14T14:02:16.213Z,57.39
2022-09-14T14:05:20.078Z,56.53
2022-09-14T14:08:40.108Z,56.83
2022-09-14T14:11:30.839Z,56.82
2022-09-14T14:14:21.629Z,57.14
2022-09-14T14:17:29.004Z,57.88
2022-09-14T14:20:39.397Z,57.78
2022-09-14T14:23:27.761Z,57.38
2022-09-14T14:26:30.111Z,57.38
2022-09-14T14:29:19.192Z,57.48
2022-09-14T14:32:07.022Z,57.14
2022-09-14T14:34:56.286Z,56.80
2022-09-14T14:37:44.573Z,56.94
2022-09-14T14:40:34.971Z,57.41
2022-09-14T14:43:27.000Z,57.40
2022-09-14T14:46:16.165Z,56.67
2022-09-14T14:49:04.235Z,55.83
2022-09-14T14:51:53.915Z,55.94
2022-09-14T14:54:42.538Z,54.51
2022-09-14T14:57:30.837Z,54.24
2022-09-14T15:00:23.436Z,53.21
2022-09-14T15:03:11.452Z,53.67
2022-09-14T15:06:12.185Z,54.17
2022-09-14T15:09:00.006Z,55.06
2022-09-14T15:11:54.886Z,55.67
2022-09-14T15:14:42.885Z,56.38
2022-09-14T15:17:30.933Z,57.11
2022-09-14T15:20:20.003Z,57.28
2022-09-14T15:23:10.113Z,57.35
2022-09-14T15:26:07.078Z,57.36
2022-09-14T15:28:55.332Z,57.64
2022-09-14T15:31:43.695Z,58.00
2022-09-14T15:34:32.088Z,58.45
2022-09-14T15:37:20.456Z,58.49
2022-09-14T15:40:20.776Z,58.11
2022-09-14T15:43:18.962Z,57.41
2022-09-14T15:46:11.929Z,57.51
2022-09-14T15:49:08.186Z,57.38
2022-09-14T15:52:00.424Z,56.61
2022-09-14T15:54:49.441Z,56.72
2022-09-14T15:57:38.742Z,57.11
2022-09-14T16:00:26.284Z,57.53
2022-09-14T16:03:14.331Z,58.00
2022-09-14T16:06:02.463Z,57.50
2022-09-14T16:08:50.575Z,56.59
2022-09-14T16:11:41.311Z,56.49
2022-09-14T16:14:29.215Z,56.58
2022-09-14T16:17:17.148Z,56.96
2022-09-14T16:20:05.991Z,57.90
2022-09-14T16:22:53.875Z,57.87
2022-09-14T16:25:41.881Z,58.08
2022-09-14T16:28:32.131Z,58.70
2022-09-14T16:31:31.710Z,59.43
2022-09-14T16:34:29.641Z,59.92
2022-09-14T16:37:17.560Z,60.39
2022-09-14T16:40:06.199Z,60.88
2022-09-14T16:42:53.961Z,61.33
2022-09-14T16:45:41.871Z,61.75
2022-09-14T16:48:30.206Z,62.55
2022-09-14T16:51:22.878Z,62.86
2022-09-14T16:54:46.021Z,63.92
2022-09-14T16:57:50.697Z,64.59
2022-09-14T17:00:45.360Z,65.16
2022-09-14T17:03:42.471Z,65.77
2022-09-14T17:06:47.547Z,66.28
2022-09-14T17:09:57.661Z,66.54
2022-09-14T17:12:53.861Z,67.03
2022-09-14T17:15:41.882Z,67.61
2022-09-14T17:18:30.439Z,67.90
2022-09-14T17:21:22.170Z,68.16
2022-09-14T17:24:11.564Z,68.73
2022-09-14T17:27:17.468Z,69.18
2022-09-14T17:30:12.671Z,69.39
2022-09-14T17:33:00.298Z,69.69
2022-09-14T17:35:53.333Z,69.76
2022-09-14T17:38:43.798Z,70.11
2022-09-14T17:41:34.079Z,70.72
2022-09-14T17:44:22.887Z,70.55
2022-09-14T17:47:13.089Z,71.37
2022-09-14T17:50:01.887Z,71.42
2022-09-14T17:52:53.109Z,71.25
2022-09-14T17:55:43.267Z,71.39
2022-09-14T17:58:32.576Z,71.99
2022-09-14T18:01:25.078Z,71.80
2022-09-14T18:04:15.826Z,72.31
2022-09-14T18:07:06.894Z,72.39
2022-09-14T18:09:54.304Z,72.32
2022-09-14T18:12:42.457Z,72.46
2022-09-14T18:15:31.160Z,72.59
2022-09-14T18:18:19.374Z,72.71
2022-09-14T18:21:08.279Z,73.20
2022-09-14T18:23:57.056Z,73.21
2022-09-14T18:27:15.409Z,73.59
2022-09-14T18:30:17.242Z,74.10
2022-09-14T18:33:05.059Z,74.02
2022-09-14T18:36:13.646Z,73.96
2022-09-14T18:39:45.905Z,74.71
2022-09-14T18:43:08.033Z,74.93
2022-09-14T18:45:59.824Z,75.24
2022-09-14T18:48:55.240Z,75.77
2022-09-14T18:51:54.087Z,76.11
2022-09-14T18:54:57.585Z,76.72
2022-09-14T18:58:22.321Z,76.97
2022-09-14T19:01:23.115Z,77.17
2022-09-14T19:04:16.062Z,76.85
2022-09-14T19:07:05.065Z,77.07
2022-09-14T19:09:53.125Z,77.00
2022-09-14T19:12:42.288Z,77.32
2022-09-14T19:15:32.698Z,77.43
2022-09-14T19:18:21.139Z,77.55
2022-09-14T19:21:27.711Z,77.44
2022-09-14T19:24:18.153Z,77.42
2022-09-14T19:27:16.119Z,77.64
2022-09-14T19:30:07.715Z,76.70
2022-09-14T19:32:55.266Z,76.53
2022-09-14T19:35:43.273Z,75.99
2022-09-14T19:38:37.696Z,75.41
2022-09-14T19:41:25.862Z,75.14
2022-09-14T19:44:14.317Z,75.14
2022-09-14T19:47:04.785Z,75.08
2022-09-14T19:49:52.857Z,74.93
2022-09-14T19:52:40.919Z,74.83
2022-09-14T19:55:28.890Z,74.70
2022-09-14T19:58:17.231Z,74.86
2022-09-14T20:01:06.680Z,74.79
2022-09-14T20:03:54.989Z,74.89
2022-09-14T20:06:47.484Z,75.08
2022-09-14T20:09:35.302Z,75.08
2022-09-14T20:12:23.136Z,75.20
2022-09-14T20:15:11.351Z,75.18
2022-09-14T20:17:59.419Z,75.31
2022-09-14T20:20:47.392Z,75.17
2022-09-14T20:23:35.803Z,75.22
2022-09-14T20:26:25.689Z,75.27
2022-09-14T20:29:15.320Z,75.35
2022-09-14T20:32:20.288Z,75.52
2022-09-14T20:35:22.672Z,75.70
2022-09-14T20:38:10.659Z,76.14
2022-09-14T20:41:18.230Z,76.52
2022-09-14T20:44:06.640Z,76.71
2022-09-14T20:46:54.458Z,76.81
2022-09-14T20:49:45.071Z,77.13
2022-09-14T20:52:33.065Z,77.22
2022-09-14T20:55:20.956Z,77.43
2022-09-14T20:58:08.662Z,77.45
2022-09-14T21:01:16.292Z,77.52
2022-09-14T21:04:12.065Z,77.99
2022-09-14T21:07:00.202Z,77.93
2022-09-14T21:09:48.331Z,78.07
2022-09-14T21:12:39.170Z,78.43
2022-09-14T21:15:29.810Z,78.39
2022-09-14T21:18:20.750Z,78.70
2022-09-14T21:21:16.539Z,79.20
2022-09-14T21:24:10.627Z,79.38
2022-09-14T21:26:58.238Z,79.07
2022-09-14T21:29:47.889Z,79.36
2022-09-14T21:32:40.165Z,79.42
2022-09-14T21:35:33.442Z,79.73
2022-09-14T21:38:21.759Z,79.73
2022-09-14T21:41:11.652Z,79.63
2022-09-14T21:43:59.769Z,79.61
2022-09-14T21:46:49.648Z,79.55
2022-09-14T21:49:38.816Z,79.35
2022-09-14T21:52:29.235Z,79.25
2022-09-14T21:55:17.213Z,78.77
2022-09-14T21:58:05.089Z,78.70
2022-09-14T23:24:04.789Z,80.05
2022-09-14T23:26:52.612Z,80.08
2022-09-14T23:29:40.715Z,80.17
2022-09-14T23:32:28.428Z,80.01
2022-09-14T23:35:16.679Z,80.21
2022-09-14T23:38:04.471Z,80.16
2022-09-14T23:40:53.264Z,80.08
2022-09-14T23:43:41.085Z,80.39
2022-09-14T23:46:29.138Z,80.15
2022-09-14T23:49:17.348Z,80.27
2022-09-14T23:52:05.374Z,80.34
2022-09-14T23:54:53.458Z,80.25
2022-09-14T23:57:41.527Z,80.43
